createdAt,value
2017-01-11T00:00:01.527Z,88.96
2017-01-11T00:00:29.855Z,88.76
2017-01-11T00:00:57.965Z,88.96
2017-01-11T00:01:26.093Z,88.86
2017-01-11T00:01:54.436Z,88.96
2017-01-11T00:02:22.611Z,89.06
2017-01-11T00:02:51.046Z,88.96
2017-01-11T00:03:19.375Z,88.92
2017-01-11T00:03:47.656Z,89.01
2017-01-11T00:04:15.985Z,89.21
2017-01-11T00:05:27.279Z,89.06
2017-01-11T00:05:55.496Z,89.31
2017-01-11T00:06:23.742Z,89.35
2017-01-11T00:06:51.936Z,89.74
2017-01-11T00:07:20.040Z,90.12
2017-01-11T00:07:48.189Z,89.84
2017-01-11T00:08:16.372Z,89.79
2017-01-11T00:08:44.512Z,89.69
2017-01-11T00:09:12.747Z,90.08
2017-01-11T00:09:41.028Z,89.79
2017-01-11T00:10:09.350Z,89.89
2017-01-11T00:11:20.461Z,89.89
2017-01-11T00:11:48.680Z,90.47
2017-01-11T00:12:16.915Z,90.37
2017-01-11T00:12:45.204Z,90.86
2017-01-11T00:13:13.657Z,90.86
2017-01-11T00:13:41.899Z,90.86
2017-01-11T00:14:09.885Z,90.77
2017-01-11T00:14:38.213Z,90.77
2017-01-11T00:15:06.537Z,90.77
2017-01-11T00:15:34.816Z,90.86
2017-01-11T00:16:02.950Z,90.57
2017-01-11T00:17:14.245Z,90.77
2017-01-11T00:17:42.464Z,90.86
2017-01-11T00:18:10.789Z,90.57
2017-01-11T00:18:38.991Z,90.95
2017-01-11T00:19:07.099Z,91.25
2017-01-11T00:19:35.249Z,91.35
2017-01-11T00:20:03.151Z,91.64
2017-01-11T00:20:31.199Z,91.64
2017-01-11T00:20:59.427Z,91.64
2017-01-11T00:21:27.595Z,91.74
2017-01-11T00:21:55.917Z,91.44
2017-01-11T00:23:07.309Z,91.25
2017-01-11T00:23:35.536Z,91.15
2017-01-11T00:24:03.855Z,91.44
2017-01-11T00:24:32.054Z,91.74
2017-01-11T00:25:00.345Z,91.83
2017-01-11T00:25:29.042Z,92.41
2017-01-11T00:25:57.224Z,92.32
2017-01-11T00:26:25.552Z,92.71
2017-01-11T00:26:53.785Z,92.71
2017-01-11T00:27:21.976Z,92.71
2017-01-11T00:27:50.207Z,93.29
2017-01-11T00:29:01.598Z,93.34
2017-01-11T00:29:29.912Z,93.44
2017-01-11T00:29:58.237Z,93.24
2017-01-11T00:30:26.528Z,93.63
2017-01-11T00:30:54.541Z,93.34
2017-01-11T00:31:22.877Z,93.54
2017-01-11T00:31:51.057Z,93.63
2017-01-11T00:32:19.104Z,93.73
2017-01-11T00:32:47.152Z,93.82
2017-01-11T00:33:15.436Z,93.54
2017-01-11T00:33:43.757Z,93.44
2017-01-11T00:34:55.146Z,93.54
2017-01-11T00:35:23.272Z,93.54
2017-01-11T00:35:51.601Z,93.63
2017-01-11T00:36:19.794Z,93.63
2017-01-11T00:36:48.080Z,93.92
2017-01-11T00:37:16.230Z,93.92
2017-01-11T00:37:44.313Z,94.21
2017-01-11T00:38:12.455Z,94.7
2017-01-11T00:38:40.785Z,94.41
2017-01-11T00:39:08.974Z,94.6
2017-01-11T00:39:37.203Z,94.7
2017-01-11T00:40:48.500Z,94.99
2017-01-11T00:41:16.628Z,94.51
2017-01-11T00:41:44.761Z,95.18
2017-01-11T00:42:12.960Z,94.99
2017-01-11T00:42:41.247Z,94.51
2017-01-11T00:43:09.492Z,95.14
2017-01-11T00:43:37.673Z,95.38
2017-01-11T00:44:05.817Z,96.11
2017-01-11T00:44:34.055Z,96.01
2017-01-11T00:45:02.146Z,95.53
2017-01-11T00:45:30.465Z,95.43
2017-01-11T00:46:41.666Z,95.72
2017-01-11T00:47:09.884Z,95.72
2017-01-11T00:47:38.215Z,95.72
2017-01-11T00:48:06.221Z,96.4
2017-01-11T00:48:34.515Z,95.92
2017-01-11T00:49:02.757Z,96.79
2017-01-11T00:49:31.603Z,96.4
2017-01-11T00:49:59.931Z,96.4
2017-01-11T00:50:28.264Z,97.18
2017-01-11T00:50:56.455Z,97.18
2017-01-11T00:51:24.594Z,96.98
2017-01-11T00:52:35.884Z,97.08
2017-01-11T00:53:03.911Z,97.28
2017-01-11T00:53:31.950Z,97.18
2017-01-11T00:54:00.240Z,97.18
2017-01-11T00:54:28.525Z,97.18
2017-01-11T00:54:56.678Z,97.37
2017-01-11T00:55:24.691Z,96.89
2017-01-11T00:55:52.743Z,97.47
2017-01-11T00:56:21.213Z,97.37
2017-01-11T00:56:49.408Z,97.96
2017-01-11T00:57:17.632Z,97.66
2017-01-11T00:58:28.737Z,97.66
2017-01-11T00:58:56.675Z,97.56
2017-01-11T00:59:24.719Z,97.47
2017-01-11T00:59:53.007Z,97.76
2017-01-11T01:00:21.297Z,97.96
2017-01-11T01:00:49.539Z,97.18
2017-01-11T01:01:17.627Z,97.56
2017-01-11T01:01:45.667Z,97.37
2017-01-11T01:02:13.808Z,97.47
2017-01-11T01:02:42.092Z,97.42
2017-01-11T01:03:10.414Z,97.76
2017-01-11T01:04:21.612Z,98.05
2017-01-11T01:04:49.732Z,97.81
2017-01-11T01:05:17.866Z,97.81
2017-01-11T01:05:45.966Z,97.81
2017-01-11T01:06:14.068Z,97.81
2017-01-11T01:06:42.405Z,98.2
2017-01-11T01:07:10.580Z,98.39
2017-01-11T01:07:38.900Z,98.3
2017-01-11T01:08:07.133Z,97.81
2017-01-11T01:08:35.315Z,98.39
2017-01-11T01:09:03.445Z,98.1
2017-01-11T01:10:14.743Z,98.68
2017-01-11T01:10:42.963Z,98.05
2017-01-11T01:11:11.101Z,98.78
2017-01-11T01:11:39.207Z,98.2
2017-01-11T01:12:07.310Z,98.58
2017-01-11T01:12:35.457Z,98.39
2017-01-11T01:13:03.541Z,98.49
2017-01-11T01:13:31.603Z,98.2
2017-01-11T01:13:59.833Z,98.2
2017-01-11T01:14:28.115Z,98.1
2017-01-11T01:14:56.439Z,98.49
2017-01-11T01:16:07.645Z,98.39
2017-01-11T01:16:35.773Z,98.58
2017-01-11T01:17:18.470Z,98.44
2017-01-11T01:17:46.585Z,98
2017-01-11T01:18:14.575Z,97.91
2017-01-11T01:18:42.717Z,97.81
2017-01-11T01:19:10.926Z,97.81
2017-01-11T01:19:39.114Z,97.91
2017-01-11T01:20:07.281Z,98
2017-01-11T01:20:35.548Z,98.1
2017-01-11T01:21:03.650Z,97.81
2017-01-11T01:22:20.734Z,98.3
2017-01-11T01:22:48.766Z,98.39
2017-01-11T01:23:16.904Z,98.1
2017-01-11T01:23:45.196Z,97.86
2017-01-11T01:24:13.490Z,97.91
2017-01-11T01:24:41.565Z,98.3
2017-01-11T01:25:09.745Z,97.81
2017-01-11T01:25:37.978Z,97.71
2017-01-11T01:26:06.025Z,98.1
2017-01-11T01:26:34.123Z,98
2017-01-11T01:27:02.351Z,98.39
2017-01-11T01:28:13.846Z,98.2
2017-01-11T01:28:42.155Z,97.91
2017-01-11T01:29:10.478Z,97.81
2017-01-11T01:29:38.676Z,98
2017-01-11T01:30:06.867Z,98.49
2017-01-11T01:30:35.114Z,98.1
2017-01-11T01:31:03.284Z,98.39
2017-01-11T01:31:31.607Z,98.2
2017-01-11T01:31:59.931Z,98.3
2017-01-11T01:32:28.215Z,98.39
2017-01-11T01:32:56.538Z,98.3
2017-01-11T01:34:07.840Z,98.15
2017-01-11T01:34:35.970Z,98.3
2017-01-11T01:35:04.198Z,98.49
2017-01-11T01:35:32.836Z,98.49
2017-01-11T01:36:01.121Z,98.1
2017-01-11T01:36:29.363Z,98.3
2017-01-11T01:36:57.538Z,98.2
2017-01-11T01:37:25.586Z,98.3
2017-01-11T01:37:53.818Z,98.39
2017-01-11T01:38:22.098Z,98.49
2017-01-11T01:38:50.326Z,98.39
2017-01-11T01:40:01.717Z,98.39
2017-01-11T01:40:29.933Z,98.3
2017-01-11T01:40:58.071Z,98.3
2017-01-11T01:41:26.171Z,98.2
2017-01-11T01:41:54.090Z,98.3
2017-01-11T01:42:22.425Z,98.49
2017-01-11T01:42:50.425Z,98.39
2017-01-11T01:43:18.562Z,98.58
2017-01-11T01:43:46.889Z,98.49
2017-01-11T01:44:15.166Z,98.3
2017-01-11T01:44:43.305Z,98.2
2017-01-11T01:45:54.505Z,98
2017-01-11T01:46:22.812Z,98.2
2017-01-11T01:46:51.050Z,97.91
2017-01-11T01:47:19.338Z,98
2017-01-11T01:47:47.620Z,98.39
2017-01-11T01:48:15.684Z,98.2
2017-01-11T01:48:43.958Z,98.1
2017-01-11T01:49:12.283Z,98
2017-01-11T01:49:40.418Z,97.81
2017-01-11T01:50:08.699Z,97.91
2017-01-11T01:50:36.837Z,97.81
2017-01-11T01:51:48.223Z,97.96
2017-01-11T01:52:16.381Z,98
2017-01-11T01:52:44.606Z,98.44
2017-01-11T01:53:12.894Z,97.81
2017-01-11T01:53:41.184Z,98.2
2017-01-11T01:54:09.520Z,98.1
2017-01-11T01:54:37.702Z,98.49
2017-01-11T01:55:06.030Z,98.2
2017-01-11T01:55:34.359Z,98.58
2017-01-11T01:56:02.667Z,98.88
2017-01-11T01:56:30.897Z,98.78
2017-01-11T01:57:42.197Z,98.2
2017-01-11T01:58:10.415Z,98.49
2017-01-11T01:58:38.744Z,98.3
2017-01-11T01:59:06.938Z,98.58
2017-01-11T01:59:35.227Z,98.78
2017-01-11T02:00:03.468Z,98.3
2017-01-11T02:00:31.655Z,98.49
2017-01-11T02:00:59.978Z,98.3
2017-01-11T02:01:28.216Z,98.39
2017-01-11T02:01:56.497Z,98.68
2017-01-11T02:02:24.730Z,98.1
2017-01-11T02:03:36.025Z,98.3
2017-01-11T02:04:04.148Z,97.81
2017-01-11T02:04:32.282Z,97.81
2017-01-11T02:05:00.572Z,97.81
2017-01-11T02:05:28.767Z,97.71
2017-01-11T02:05:57.108Z,98.2
2017-01-11T02:06:25.104Z,97.81
2017-01-11T02:06:53.335Z,97.91
2017-01-11T02:07:21.570Z,97.91
2017-01-11T02:07:49.943Z,97.42
2017-01-11T02:08:18.263Z,98
2017-01-11T02:09:29.560Z,98.2
2017-01-11T02:09:57.705Z,98.78
2017-01-11T02:10:25.841Z,98.58
2017-01-11T02:10:54.129Z,98.39
2017-01-11T02:11:22.421Z,98.49
2017-01-11T02:11:50.661Z,98.49
2017-01-11T02:12:18.748Z,98.58
2017-01-11T02:12:47.075Z,98.39
2017-01-11T02:13:15.215Z,98.1
2017-01-11T02:13:43.401Z,98.2
2017-01-11T02:14:11.629Z,98
2017-01-11T02:15:22.730Z,98.3
2017-01-11T02:15:50.857Z,98
2017-01-11T02:16:19.174Z,97.91
2017-01-11T02:16:47.461Z,97.81
2017-01-11T02:17:15.746Z,97.91
2017-01-11T02:17:43.991Z,98.39
2017-01-11T02:18:11.982Z,98.3
2017-01-11T02:18:40.123Z,98.63
2017-01-11T02:19:08.352Z,98.83
2017-01-11T02:19:36.631Z,99.12
2017-01-11T02:20:04.865Z,99.22
2017-01-11T02:21:16.240Z,99.12
2017-01-11T02:21:44.392Z,98.83
2017-01-11T02:22:12.499Z,99.12
2017-01-11T02:22:40.773Z,99.02
2017-01-11T02:23:09.083Z,99.02
2017-01-11T02:23:37.210Z,99.02
2017-01-11T02:24:05.296Z,98.63
2017-01-11T02:24:33.430Z,98.63
2017-01-11T02:25:01.662Z,99.02
2017-01-11T02:25:29.844Z,99.12
2017-01-11T02:25:57.983Z,98.83
2017-01-11T02:27:09.176Z,98.93
2017-01-11T02:27:37.411Z,99.12
2017-01-11T02:28:05.646Z,98.93
2017-01-11T02:28:33.934Z,99.46
2017-01-11T02:29:02.132Z,99.12
2017-01-11T02:29:30.374Z,99.02
2017-01-11T02:29:58.457Z,98.73
2017-01-11T02:30:26.411Z,98.68
2017-01-11T02:30:54.649Z,98.63
2017-01-11T02:31:22.750Z,99.12
2017-01-11T02:31:51.067Z,99.22
2017-01-11T02:33:02.449Z,98.63
2017-01-11T02:33:30.570Z,98.88
2017-01-11T02:33:58.703Z,98.93
2017-01-11T02:34:26.989Z,98.73
2017-01-11T02:34:55.276Z,98.83
2017-01-11T02:35:23.615Z,98.93
2017-01-11T02:35:51.888Z,98.73
2017-01-11T02:36:19.931Z,98.63
2017-01-11T02:36:48.168Z,98.73
2017-01-11T02:37:16.447Z,98.73
2017-01-11T02:37:44.670Z,98.93
2017-01-11T02:38:55.966Z,98.93
2017-01-11T02:39:24.272Z,98.35
2017-01-11T02:39:52.600Z,98.35
2017-01-11T02:40:20.793Z,98.54
2017-01-11T02:40:48.983Z,98.93
2017-01-11T02:41:17.317Z,98.63
2017-01-11T02:41:45.402Z,99.02
2017-01-11T02:42:13.631Z,99.6
2017-01-11T02:42:41.956Z,99.51
2017-01-11T02:43:10.335Z,99.41
2017-01-11T02:43:38.656Z,99.22
2017-01-11T02:44:49.948Z,99.65
2017-01-11T02:45:18.074Z,98.97
2017-01-11T02:45:46.239Z,99.46
2017-01-11T02:46:14.435Z,99.55
2017-01-11T02:46:42.630Z,99.46
2017-01-11T02:47:10.870Z,99.99
2017-01-11T02:47:38.957Z,99.46
2017-01-11T02:48:07.186Z,99.95
2017-01-11T02:48:35.240Z,99.99
2017-01-11T02:49:03.611Z,99.75
2017-01-11T02:49:31.742Z,99.99
2017-01-11T02:50:42.853Z,99.55
2017-01-11T02:51:11.071Z,99.17
2017-01-11T02:51:39.206Z,99.07
2017-01-11T02:52:07.123Z,99.07
2017-01-11T02:52:35.224Z,98.97
2017-01-11T02:53:03.563Z,99.46
2017-01-11T02:53:31.739Z,99.07
2017-01-11T02:53:59.876Z,99.46
2017-01-11T02:54:28.107Z,99.07
2017-01-11T02:54:56.395Z,99.27
2017-01-11T02:55:24.717Z,99.27
2017-01-11T02:56:35.920Z,98.3
2017-01-11T02:57:04.233Z,98.39
2017-01-11T02:57:32.552Z,98.3
2017-01-11T02:58:00.749Z,98.1
2017-01-11T02:58:28.940Z,98.2
2017-01-11T02:58:57.184Z,97.91
2017-01-11T02:59:25.455Z,97.71
2017-01-11T02:59:53.782Z,97.81
2017-01-11T03:00:22.020Z,97.81
2017-01-11T03:00:50.300Z,97.81
2017-01-11T03:01:18.529Z,97.71
2017-01-11T03:02:29.728Z,98.2
2017-01-11T03:02:58.037Z,97.91
2017-01-11T03:03:26.267Z,97.33
2017-01-11T03:03:54.462Z,98
2017-01-11T03:04:22.654Z,97.61
2017-01-11T03:04:50.811Z,97.33
2017-01-11T03:05:18.896Z,97.91
2017-01-11T03:05:47.121Z,97.86
2017-01-11T03:06:15.072Z,97.61
2017-01-11T03:06:43.353Z,98.1
2017-01-11T03:07:11.672Z,98.05
2017-01-11T03:08:22.962Z,97.96
2017-01-11T03:08:51.268Z,97.96
2017-01-11T03:09:19.496Z,97.57
2017-01-11T03:09:47.597Z,97.28
2017-01-11T03:10:15.790Z,97.76
2017-01-11T03:10:44.035Z,97.38
2017-01-11T03:11:12.306Z,97.86
2017-01-11T03:11:40.350Z,97.91
2017-01-11T03:12:08.581Z,97.76
2017-01-11T03:12:36.858Z,97.28
2017-01-11T03:13:05.178Z,97.38
2017-01-11T03:14:16.377Z,97.28
2017-01-11T03:14:44.499Z,97.38
2017-01-11T03:15:12.737Z,97.38
2017-01-11T03:15:40.765Z,97.28
2017-01-11T03:16:08.769Z,96.8
2017-01-11T03:16:37.011Z,97.18
2017-01-11T03:17:05.096Z,96.98
2017-01-11T03:17:33.139Z,96.98
2017-01-11T03:18:01.464Z,96.94
2017-01-11T03:18:29.651Z,97.18
2017-01-11T03:18:57.971Z,97.18
2017-01-11T03:20:09.272Z,96.84
2017-01-11T03:20:37.486Z,96.98
2017-01-11T03:21:05.526Z,96.89
2017-01-11T03:21:33.722Z,96.8
2017-01-11T03:22:01.922Z,96.65
2017-01-11T03:22:30.067Z,96.6
2017-01-11T03:22:58.223Z,96.6
2017-01-11T03:23:26.456Z,96.98
2017-01-11T03:23:54.687Z,96.98
2017-01-11T03:24:22.964Z,96.94
2017-01-11T03:24:51.096Z,96.98
2017-01-11T03:26:02.486Z,96.98
2017-01-11T03:26:30.791Z,96.98
2017-01-11T03:26:58.930Z,96.7
2017-01-11T03:27:27.121Z,96.8
2017-01-11T03:27:55.224Z,97.38
2017-01-11T03:28:23.460Z,97.18
2017-01-11T03:28:51.545Z,97.76
2017-01-11T03:29:19.682Z,97.47
2017-01-11T03:29:47.635Z,97.67
2017-01-11T03:30:15.816Z,97.76
2017-01-11T03:30:43.883Z,96.89
2017-01-11T03:31:55.087Z,97.67
2017-01-11T03:32:23.390Z,98.35
2017-01-11T03:32:51.611Z,98.44
2017-01-11T03:33:19.806Z,98.35
2017-01-11T03:33:48.093Z,98.54
2017-01-11T03:34:16.245Z,98.63
2017-01-11T03:34:44.237Z,98.25
2017-01-11T03:35:12.559Z,98.73
2017-01-11T03:35:40.798Z,98.73
2017-01-11T03:36:08.980Z,98.63
2017-01-11T03:36:37.641Z,98.63
2017-01-11T03:37:48.938Z,98.35
2017-01-11T03:38:16.970Z,98.54
2017-01-11T09:18:04.063Z,99.99
2017-01-11T09:18:32.879Z,99.99
2017-01-11T09:19:01.129Z,99.99
2017-01-11T09:19:29.452Z,99.99
2017-01-11T09:19:57.820Z,99.99
2017-01-11T09:20:26.067Z,99.99
2017-01-11T09:20:54.295Z,99.99
2017-01-11T09:21:22.543Z,99.99
2017-01-11T09:21:51.191Z,99.99
2017-01-11T09:22:19.432Z,99.99
2017-01-11T09:22:47.803Z,99.99
2017-01-11T09:23:42.219Z,99.99
2017-01-11T09:24:10.578Z,99.99
2017-01-11T09:24:38.957Z,99.99
2017-01-11T09:25:07.191Z,99.99
2017-01-11T09:25:35.366Z,99.99
2017-01-11T09:26:03.714Z,99.99
2017-01-11T09:26:32.051Z,99.99
2017-01-11T09:27:00.259Z,99.99
2017-01-11T09:27:28.550Z,99.99
2017-01-11T09:27:56.835Z,99.99
2017-01-11T09:28:25.207Z,99.99
2017-01-11T09:29:36.536Z,99.99
2017-01-11T09:30:04.895Z,99.99
2017-01-11T09:30:33.179Z,99.99
2017-01-11T09:31:01.418Z,99.99
2017-01-11T09:31:29.784Z,99.99
2017-01-11T09:31:58.030Z,99.99
2017-01-11T09:32:26.280Z,99.99
2017-01-11T09:32:54.670Z,99.99
2017-01-11T09:33:22.971Z,99.99
2017-01-11T09:33:51.161Z,99.99
2017-01-11T09:34:19.536Z,99.99
2017-01-11T09:35:30.867Z,99.99
2017-01-11T09:35:59.226Z,99.99
2017-01-11T09:36:27.622Z,99.99
2017-01-11T09:36:55.843Z,99.99
2017-01-11T09:37:24.197Z,99.99
2017-01-11T09:37:52.446Z,99.99
2017-01-11T09:38:20.785Z,99.99
2017-01-11T09:38:48.895Z,99.99
2017-01-11T09:39:17.285Z,99.99
2017-01-11T09:39:45.575Z,99.99
2017-01-11T09:40:13.952Z,99.99
2017-01-11T09:41:25.292Z,99.99
2017-01-11T09:41:53.655Z,99.99
2017-01-11T09:42:21.933Z,99.99
2017-01-11T09:42:50.171Z,99.99
2017-01-11T09:43:18.439Z,99.99
2017-01-11T09:43:46.603Z,99.99
2017-01-11T09:44:14.947Z,99.99
2017-01-11T09:44:43.250Z,99.99
2017-01-11T09:45:11.642Z,99.99
2017-01-11T09:45:39.927Z,99.99
2017-01-11T09:46:08.302Z,99.99
2017-01-11T09:47:19.718Z,99.99
2017-01-11T09:47:47.979Z,99.99
2017-01-11T09:48:16.365Z,99.99
2017-01-11T09:48:44.609Z,99.99
2017-01-11T09:49:12.974Z,99.99
2017-01-11T09:49:41.138Z,99.99
2017-01-11T09:50:09.385Z,99.99
2017-01-11T09:50:37.779Z,99.99
2017-01-11T09:51:06.075Z,99.99
2017-01-11T09:51:34.362Z,99.99
2017-01-11T09:52:02.546Z,99.99
2017-01-11T09:53:13.783Z,99.99
2017-01-11T09:53:41.960Z,99.99
2017-01-11T09:54:10.342Z,99.99
2017-01-11T09:54:38.585Z,99.99
2017-01-11T09:55:06.949Z,99.99
2017-01-11T09:55:35.014Z,99.99
2017-01-11T09:56:03.165Z,99.99
2017-01-11T09:56:31.557Z,99.99
2017-01-11T09:56:59.949Z,99.99
2017-01-11T09:57:27.953Z,99.99
2017-01-11T09:57:55.855Z,99.99
2017-01-11T09:59:07.275Z,99.99
2017-01-11T09:59:35.355Z,99.99
2017-01-11T10:00:03.546Z,99.99
2017-01-11T10:00:31.578Z,99.99
2017-01-11T10:00:59.822Z,99.99
2017-01-11T10:01:28.028Z,99.99
2017-01-11T10:01:56.253Z,99.99
2017-01-11T10:02:24.449Z,99.99
2017-01-11T10:02:52.825Z,99.99
2017-01-11T10:03:21.005Z,99.99
2017-01-11T10:03:49.383Z,99.99
2017-01-11T10:05:00.796Z,99.99
2017-01-11T10:05:29.157Z,99.99
2017-01-11T10:05:57.424Z,99.99
2017-01-11T10:06:25.704Z,99.99
2017-01-11T10:06:54.010Z,99.99
2017-01-11T10:07:22.307Z,99.99
2017-01-11T10:07:50.596Z,99.99
2017-01-11T10:08:18.845Z,99.99
2017-01-11T10:08:47.091Z,99.99
2017-01-11T10:09:15.424Z,99.99
2017-01-11T10:09:43.659Z,99.99
2017-01-11T10:10:55.076Z,99.99
2017-01-11T10:11:23.348Z,99.99
2017-01-11T10:11:51.732Z,99.99
2017-01-11T10:12:19.876Z,99.99
2017-01-11T10:12:48.143Z,99.99
2017-01-11T10:13:16.302Z,99.99
2017-01-11T10:13:44.547Z,99.99
2017-01-11T10:14:12.857Z,99.99
2017-01-11T10:14:41.242Z,99.99
2017-01-11T10:15:09.527Z,99.99
2017-01-11T10:15:37.743Z,99.99
2017-01-11T10:16:49.059Z,99.99
2017-01-11T10:17:17.324Z,99.99
2017-01-11T10:17:45.420Z,99.99
2017-01-11T10:18:13.560Z,99.99
2017-01-11T10:18:41.737Z,99.99
2017-01-11T10:19:09.898Z,99.99
2017-01-11T10:19:38.233Z,99.99
2017-01-11T10:20:06.594Z,99.99
2017-01-11T10:20:34.882Z,99.99
2017-01-11T10:21:03.073Z,99.99
2017-01-11T10:21:31.344Z,99.99
2017-01-11T10:22:42.479Z,99.99
2017-01-11T10:23:10.741Z,99.99
2017-01-11T10:23:39.023Z,99.99
2017-01-11T10:24:07.070Z,99.99
2017-01-11T10:24:35.249Z,99.99
2017-01-11T10:25:03.403Z,99.99
2017-01-11T10:25:31.557Z,99.99
2017-01-11T10:25:59.760Z,99.99
2017-01-11T10:26:27.955Z,99.99
2017-01-11T10:26:55.961Z,99.99
2017-01-11T10:27:24.150Z,99.99
2017-01-11T10:28:35.471Z,99.99
2017-01-11T10:29:03.834Z,99.99
2017-01-11T10:29:31.932Z,99.99
2017-01-11T10:30:00.077Z,99.99
2017-01-11T10:30:28.441Z,99.99
2017-01-11T10:30:56.605Z,99.99
2017-01-11T10:31:24.848Z,99.99
2017-01-11T10:31:53.241Z,99.99
2017-01-11T10:32:21.533Z,99.99
2017-01-11T10:32:49.734Z,99.99
2017-01-11T10:33:17.826Z,99.99
2017-01-11T10:34:29.157Z,99.99
2017-01-11T10:34:57.429Z,99.99
2017-01-11T10:35:25.623Z,99.99
2017-01-11T10:35:53.954Z,99.99
2017-01-11T10:36:22.135Z,99.99
2017-01-11T10:36:50.206Z,99.7
2017-01-11T10:37:18.358Z,99.51
2017-01-11T10:37:46.745Z,99.8
2017-01-11T10:38:15.040Z,99.17
2017-01-11T10:38:43.420Z,99.27
2017-01-11T10:39:11.421Z,99.07
2017-01-11T10:40:22.843Z,98.88
2017-01-11T10:40:51.113Z,98.68
2017-01-11T10:41:19.409Z,98.39
2017-01-11T10:41:47.742Z,98.1
2017-01-11T10:42:16.012Z,98.3
2017-01-11T10:42:44.272Z,98.39
2017-01-11T10:43:12.523Z,98.3
2017-01-11T10:43:40.828Z,97.71
2017-01-11T10:44:09.124Z,98.1
2017-01-11T10:44:37.418Z,98.3
2017-01-11T10:45:05.703Z,98
2017-01-11T10:46:17.041Z,98.3
2017-01-11T10:46:45.214Z,98.39
2017-01-11T10:47:13.496Z,98.2
2017-01-11T10:47:41.725Z,98.1
2017-01-11T10:48:09.997Z,98.2
2017-01-11T10:48:38.252Z,97.91
2017-01-11T10:49:06.499Z,97.71
2017-01-11T10:49:34.707Z,97.91
2017-01-11T10:50:03.095Z,97.91
2017-01-11T10:50:31.382Z,97.91
2017-01-11T10:50:59.668Z,98.2
2017-01-11T10:52:11.000Z,97.71
2017-01-11T10:52:39.275Z,97.42
2017-01-11T10:53:07.566Z,97.42
2017-01-11T10:53:35.708Z,97.61
2017-01-11T10:54:03.983Z,97.71
2017-01-11T10:54:32.055Z,97.13
2017-01-11T10:55:00.390Z,97.42
2017-01-11T10:55:28.695Z,97.42
2017-01-11T10:55:56.996Z,96.84
2017-01-11T10:56:25.377Z,96.65
2017-01-11T10:56:53.661Z,97.13
2017-01-11T10:58:04.991Z,96.94
2017-01-11T10:58:33.354Z,96.75
2017-01-11T10:59:01.649Z,96.89
2017-01-11T10:59:29.791Z,96.89
2017-01-11T10:59:58.160Z,96.41
2017-01-11T11:00:26.413Z,96.31
2017-01-11T11:00:54.755Z,96.21
2017-01-11T11:01:22.964Z,96.31
2017-01-11T11:01:51.171Z,96.69
2017-01-11T11:02:19.465Z,96.69
2017-01-11T11:02:47.748Z,96.21
2017-01-11T11:03:58.987Z,96.69
2017-01-11T11:04:27.164Z,96.11
2017-01-11T11:04:55.359Z,95.92
2017-01-11T11:05:23.591Z,96.11
2017-01-11T11:05:51.863Z,96.21
2017-01-11T11:06:20.215Z,96.11
2017-01-11T11:06:48.558Z,96.01
2017-01-11T11:07:16.860Z,95.82
2017-01-11T11:07:45.255Z,95.92
2017-01-11T11:08:13.626Z,95.82
2017-01-11T11:08:41.818Z,96.01
2017-01-11T11:09:53.062Z,96.31
2017-01-11T11:10:21.331Z,95.53
2017-01-11T11:10:49.622Z,95.73
2017-01-11T11:11:17.852Z,95.53
2017-01-11T11:11:45.941Z,95.43
2017-01-11T11:12:14.015Z,95.43
2017-01-11T11:12:42.167Z,95.24
2017-01-11T11:13:10.474Z,94.66
2017-01-11T11:13:38.769Z,94.76
2017-01-11T11:14:07.146Z,94.46
2017-01-11T11:14:35.429Z,94.66
2017-01-11T11:15:46.669Z,94.85
2017-01-11T11:16:15.034Z,94.95
2017-01-11T11:16:43.321Z,95.14
2017-01-11T11:17:11.558Z,95.97
2017-01-11T11:17:39.738Z,95.14
2017-01-11T11:18:08.090Z,95.58
2017-01-11T11:18:36.343Z,95.78
2017-01-11T11:19:04.643Z,95.24
2017-01-11T11:19:32.936Z,94.85
2017-01-11T11:20:01.311Z,94.95
2017-01-11T11:20:29.594Z,95.14
2017-01-11T11:21:40.758Z,95.14
2017-01-11T11:22:09.029Z,94.85
2017-01-11T11:22:37.409Z,95.24
2017-01-11T11:23:05.650Z,95.24
2017-01-11T11:23:33.828Z,94.95
2017-01-11T11:24:01.990Z,95.04
2017-01-11T11:24:30.237Z,95.04
2017-01-11T11:24:58.540Z,94.85
2017-01-11T11:25:26.935Z,95.63
2017-01-11T11:25:55.217Z,94.85
2017-01-11T11:26:23.406Z,95.04
2017-01-11T11:27:34.643Z,95.04
2017-01-11T11:28:03.006Z,95.04
2017-01-11T11:28:31.390Z,95.04
2017-01-11T11:28:59.438Z,94.85
2017-01-11T11:29:27.708Z,95.04
2017-01-11T11:29:55.964Z,94.95
2017-01-11T11:30:24.117Z,95.09
2017-01-11T11:30:52.413Z,94.66
2017-01-11T11:31:20.715Z,94.8
2017-01-11T11:31:49.001Z,94.51
2017-01-11T11:32:17.378Z,94.56
2017-01-11T11:33:28.709Z,94.32
2017-01-11T11:33:56.794Z,94.32
2017-01-11T11:34:25.180Z,94.02
2017-01-11T11:34:53.421Z,93.83
2017-01-11T11:35:21.605Z,93.83
2017-01-11T11:35:49.952Z,93.93
2017-01-11T11:36:18.108Z,94.02
2017-01-11T11:36:46.406Z,94.02
2017-01-11T11:37:14.796Z,94.02
2017-01-11T11:37:43.076Z,93.63
2017-01-11T11:38:11.359Z,93.44
2017-01-11T11:39:22.615Z,93.01
2017-01-11T11:39:50.610Z,93.2
2017-01-11T11:40:18.715Z,92.71
2017-01-11T11:40:46.954Z,92.42
2017-01-11T11:41:15.031Z,91.84
2017-01-11T11:41:43.185Z,91.69
2017-01-11T11:42:11.338Z,91.4
2017-01-11T11:42:39.639Z,91.3
2017-01-11T11:43:07.934Z,91.01
2017-01-11T11:43:36.219Z,90.86
2017-01-11T11:44:04.493Z,90.47
2017-01-11T11:45:15.637Z,89.01
2017-01-11T11:45:43.723Z,89.25
2017-01-11T11:46:11.919Z,88.57
2017-01-11T11:46:40.075Z,88.57
2017-01-11T11:47:08.349Z,88.57
2017-01-11T11:47:36.325Z,88.03
2017-01-11T11:48:04.387Z,87.45
2017-01-11T11:48:32.595Z,86.81
2017-01-11T11:49:00.892Z,86.42
2017-01-11T11:49:29.031Z,86.07
2017-01-11T11:49:57.220Z,85.19
2017-01-11T11:51:08.266Z,84.75
2017-01-11T11:51:36.351Z,84.07
2017-01-11T11:52:04.643Z,83.53
2017-01-11T11:52:32.797Z,83.78
2017-01-11T11:53:01.075Z,83.58
2017-01-11T11:53:29.234Z,83.33
2017-01-11T11:53:57.483Z,83.43
2017-01-11T11:54:25.603Z,82.84
2017-01-11T11:54:53.625Z,83.33
2017-01-11T11:55:21.724Z,82.94
2017-01-11T11:55:50.007Z,82.65
2017-01-11T11:57:01.252Z,83.09
2017-01-11T11:57:29.527Z,83.29
2017-01-11T11:57:57.630Z,83.48
2017-01-11T11:58:25.695Z,83.48
2017-01-11T11:58:53.787Z,83.39
2017-01-11T11:59:22.041Z,83.78
2017-01-11T11:59:50.299Z,83.87
2017-01-11T12:00:18.696Z,83.39
2017-01-11T12:00:46.905Z,83
2017-01-11T12:01:14.931Z,82.6
2017-01-11T12:01:43.215Z,82.7
2017-01-11T12:02:54.440Z,82.75
2017-01-11T12:03:22.790Z,82.16
2017-01-11T12:03:51.147Z,82.65
2017-01-11T12:04:19.372Z,82.26
2017-01-11T12:04:47.650Z,82.16
2017-01-11T12:05:15.694Z,81.77
2017-01-11T12:05:44.042Z,82.06
2017-01-11T12:06:12.410Z,81.67
2017-01-11T12:06:40.670Z,81.57
2017-01-11T12:07:08.775Z,81.57
2017-01-11T12:07:37.065Z,81.96
2017-01-11T12:08:48.499Z,81.71
2017-01-11T12:09:16.871Z,81.23
2017-01-11T12:09:45.166Z,81.03
2017-01-11T12:10:13.500Z,81.32
2017-01-11T12:10:41.782Z,80.93
2017-01-11T12:11:10.132Z,80.98
2017-01-11T12:11:38.384Z,80.35
2017-01-11T12:12:06.693Z,80.15
2017-01-11T12:12:34.897Z,80.54
2017-01-11T12:13:03.095Z,81.03
2017-01-11T12:13:31.102Z,81.03
2017-01-11T12:14:42.346Z,80.93
2017-01-11T12:15:10.500Z,81.52
2017-01-11T12:15:38.801Z,81.32
2017-01-11T12:16:06.861Z,80.93
2017-01-11T12:16:35.047Z,80.83
2017-01-11T12:17:03.303Z,80.83
2017-01-11T12:17:31.529Z,80.35
2017-01-11T12:17:59.822Z,80.64
2017-01-11T12:18:28.033Z,80.54
2017-01-11T12:18:56.232Z,80.15
2017-01-11T12:19:24.519Z,80.29
2017-01-11T12:20:35.762Z,80.29
2017-01-11T12:21:04.138Z,80.19
2017-01-11T12:21:32.343Z,80.35
2017-01-11T12:22:00.584Z,80.68
2017-01-11T12:22:28.769Z,80.19
2017-01-11T12:22:56.936Z,80.29
2017-01-11T12:23:25.092Z,80.29
2017-01-11T12:23:53.310Z,79.9
2017-01-11T12:24:21.427Z,80.39
2017-01-11T12:24:49.620Z,80.19
2017-01-11T12:25:17.723Z,80.19
2017-01-11T12:26:29.064Z,79.8
2017-01-11T12:26:57.246Z,80.1
2017-01-11T12:27:25.547Z,80.35
2017-01-11T12:27:53.785Z,79.71
2017-01-11T12:28:21.972Z,79.9
2017-01-11T12:28:50.140Z,80.15
2017-01-11T12:29:18.395Z,80.15
2017-01-11T12:29:46.704Z,80.1
2017-01-11T12:30:15.007Z,79.9
2017-01-11T12:30:43.301Z,79.61
2017-01-11T12:31:11.504Z,79.71
2017-01-11T12:32:22.938Z,79.71
2017-01-11T12:32:51.309Z,79.51
2017-01-11T12:33:19.578Z,79.64
2017-01-11T12:33:47.779Z,79.84
2017-01-11T12:34:15.913Z,78.96
2017-01-11T12:34:44.215Z,79.06